sensor_id;sensor_type;location;lat;lon;timestamp;P1;durP1;ratioP1;P2;durP2;ratioP2
51495;SDS011;37572;52.094;4.870;2024-02-14T00:02:17;24.70;;;16.10;;
51495;SDS011;37572;52.094;4.870;2024-02-14T00:04:42;24.17;;;15.82;;
51495;SDS011;37572;52.094;4.870;2024-02-14T00:07:08;26.43;;;16.40;;
51495;SDS011;37572;52.094;4.870;2024-02-14T00:09:33;26.17;;;15.57;;
51495;SDS011;37572;52.094;4.870;2024-02-14T00:11:59;30.33;;;17.23;;
51495;SDS011;37572;52.094;4.870;2024-02-14T00:14:24;27.03;;;15.17;;
51495;SDS011;37572;52.094;4.870;2024-02-14T00:16:49;25.33;;;15.10;;
51495;SDS011;37572;52.094;4.870;2024-02-14T00:19:15;26.70;;;15.70;;
51495;SDS011;37572;52.094;4.870;2024-02-14T00:21:41;25.75;;;15.65;;
51495;SDS011;37572;52.094;4.870;2024-02-14T00:24:07;25.02;;;15.45;;
51495;SDS011;37572;52.094;4.870;2024-02-14T00:26:32;24.63;;;14.05;;
51495;SDS011;37572;52.094;4.870;2024-02-14T00:28:57;22.17;;;13.87;;
51495;SDS011;37572;52.094;4.870;2024-02-14T00:31:23;24.40;;;14.55;;
51495;SDS011;37572;52.094;4.870;2024-02-14T00:33:48;25.33;;;15.80;;
51495;SDS011;37572;52.094;4.870;2024-02-14T00:36:14;25.30;;;15.90;;
51495;SDS011;37572;52.094;4.870;2024-02-14T00:38:39;26.55;;;16.83;;
51495;SDS011;37572;52.094;4.870;2024-02-14T00:41:05;25.33;;;15.30;;
51495;SDS011;37572;52.094;4.870;2024-02-14T00:43:30;25.00;;;15.03;;
51495;SDS011;37572;52.094;4.870;2024-02-14T00:45:55;25.88;;;15.13;;
51495;SDS011;37572;52.094;4.870;2024-02-14T00:48:21;23.80;;;15.85;;
51495;SDS011;37572;52.094;4.870;2024-02-14T00:50:49;25.70;;;15.75;;
51495;SDS011;37572;52.094;4.870;2024-02-14T00:53:14;25.52;;;15.70;;
51495;SDS011;37572;52.094;4.870;2024-02-14T00:55:40;25.00;;;15.75;;
51495;SDS011;37572;52.094;4.870;2024-02-14T00:58:06;24.17;;;15.45;;
51495;SDS011;37572;52.094;4.870;2024-02-14T01:00:31;28.15;;;16.95;;
51495;SDS011;37572;52.094;4.870;2024-02-14T01:02:56;25.40;;;15.77;;
51495;SDS011;37572;52.094;4.870;2024-02-14T01:05:22;24.83;;;16.15;;
51495;SDS011;37572;52.094;4.870;2024-02-14T01:07:48;26.88;;;15.10;;
51495;SDS011;37572;52.094;4.870;2024-02-14T01:10:13;25.60;;;15.68;;
51495;SDS011;37572;52.094;4.870;2024-02-14T01:12:39;22.87;;;14.27;;
51495;SDS011;37572;52.094;4.870;2024-02-14T01:15:05;27.02;;;16.10;;
51495;SDS011;37572;52.094;4.870;2024-02-14T01:17:31;25.80;;;15.45;;
51495;SDS011;37572;52.094;4.870;2024-02-14T01:19:56;26.37;;;15.37;;
51495;SDS011;37572;52.094;4.870;2024-02-14T01:22:23;30.88;;;16.38;;
51495;SDS011;37572;52.094;4.870;2024-02-14T01:24:48;24.67;;;15.67;;
51495;SDS011;37572;52.094;4.870;2024-02-14T01:27:13;27.77;;;16.23;;
51495;SDS011;37572;52.094;4.870;2024-02-14T01:29:38;26.97;;;15.10;;
51495;SDS011;37572;52.094;4.870;2024-02-14T01:32:04;29.33;;;16.53;;
51495;SDS011;37572;52.094;4.870;2024-02-14T01:34:30;31.38;;;16.45;;
51495;SDS011;37572;52.094;4.870;2024-02-14T01:36:55;33.50;;;17.67;;
51495;SDS011;37572;52.094;4.870;2024-02-14T01:39:20;29.05;;;16.02;;
51495;SDS011;37572;52.094;4.870;2024-02-14T01:41:47;31.02;;;16.30;;
51495;SDS011;37572;52.094;4.870;2024-02-14T01:44:13;31.05;;;16.48;;
51495;SDS011;37572;52.094;4.870;2024-02-14T01:46:39;30.40;;;16.65;;
51495;SDS011;37572;52.094;4.870;2024-02-14T01:49:05;29.25;;;16.88;;
51495;SDS011;37572;52.094;4.870;2024-02-14T01:51:30;29.00;;;17.65;;
51495;SDS011;37572;52.094;4.870;2024-02-14T01:53:56;27.02;;;16.45;;
51495;SDS011;37572;52.094;4.870;2024-02-14T01:56:23;27.85;;;17.80;;
51495;SDS011;37572;52.094;4.870;2024-02-14T01:58:49;26.58;;;16.65;;
51495;SDS011;37572;52.094;4.870;2024-02-14T02:01:15;28.63;;;16.73;;
51495;SDS011;37572;52.094;4.870;2024-02-14T02:03:42;27.92;;;15.35;;
51495;SDS011;37572;52.094;4.870;2024-02-14T02:06:08;27.02;;;17.42;;
51495;SDS011;37572;52.094;4.870;2024-02-14T02:08:34;26.20;;;16.05;;
51495;SDS011;37572;52.094;4.870;2024-02-14T02:10:59;26.65;;;16.83;;
51495;SDS011;37572;52.094;4.870;2024-02-14T02:13:24;29.88;;;17.20;;
51495;SDS011;37572;52.094;4.870;2024-02-14T02:15:50;25.48;;;17.10;;
51495;SDS011;37572;52.094;4.870;2024-02-14T02:18:18;26.95;;;16.10;;
51495;SDS011;37572;52.094;4.870;2024-02-14T02:20:44;28.38;;;16.63;;
51495;SDS011;37572;52.094;4.870;2024-02-14T02:23:12;24.97;;;15.70;;
51495;SDS011;37572;52.094;4.870;2024-02-14T02:25:39;23.90;;;14.05;;
51495;SDS011;37572;52.094;4.870;2024-02-14T02:28:05;20.60;;;13.52;;
51495;SDS011;37572;52.094;4.870;2024-02-14T02:30:31;23.77;;;15.10;;
51495;SDS011;37572;52.094;4.870;2024-02-14T02:32:56;23.13;;;14.68;;
51495;SDS011;37572;52.094;4.870;2024-02-14T02:35:22;25.17;;;14.23;;
51495;SDS011;37572;52.094;4.870;2024-02-14T02:37:49;24.33;;;15.88;;
51495;SDS011;37572;52.094;4.870;2024-02-14T02:40:15;21.58;;;13.85;;
51495;SDS011;37572;52.094;4.870;2024-02-14T02:42:41;20.27;;;12.63;;
51495;SDS011;37572;52.094;4.870;2024-02-14T02:45:07;21.40;;;14.43;;
51495;SDS011;37572;52.094;4.870;2024-02-14T02:47:33;21.23;;;13.13;;
51495;SDS011;37572;52.094;4.870;2024-02-14T02:49:59;20.37;;;13.43;;
51495;SDS011;37572;52.094;4.870;2024-02-14T02:52:28;19.90;;;13.13;;
51495;SDS011;37572;52.094;4.870;2024-02-14T02:54:54;21.45;;;13.77;;
51495;SDS011;37572;52.094;4.870;2024-02-14T02:57:19;19.90;;;12.10;;
51495;SDS011;37572;52.094;4.870;2024-02-14T02:59:45;21.65;;;13.15;;
51495;SDS011;37572;52.094;4.870;2024-02-14T03:02:13;24.20;;;13.73;;
51495;SDS011;37572;52.094;4.870;2024-02-14T03:04:38;21.40;;;12.80;;
51495;SDS011;37572;52.094;4.870;2024-02-14T03:07:04;22.85;;;13.80;;
51495;SDS011;37572;52.094;4.870;2024-02-14T03:09:32;22.20;;;13.75;;
51495;SDS011;37572;52.094;4.870;2024-02-14T03:11:58;22.00;;;13.75;;
51495;SDS011;37572;52.094;4.870;2024-02-14T03:14:23;23.88;;;13.88;;
51495;SDS011;37572;52.094;4.870;2024-02-14T03:16:49;23.40;;;14.52;;
51495;SDS011;37572;52.094;4.870;2024-02-14T03:19:14;25.85;;;15.20;;
51495;SDS011;37572;52.094;4.870;2024-02-14T03:21:40;29.92;;;14.80;;
51495;SDS011;37572;52.094;4.870;2024-02-14T03:24:05;27.83;;;14.63;;
51495;SDS011;37572;52.094;4.870;2024-02-14T03:26:34;26.98;;;14.98;;
51495;SDS011;37572;52.094;4.870;2024-02-14T03:29:01;29.70;;;15.88;;
51495;SDS011;37572;52.094;4.870;2024-02-14T03:31:29;28.73;;;15.57;;
51495;SDS011;37572;52.094;4.870;2024-02-14T03:33:55;32.80;;;17.40;;
51495;SDS011;37572;52.094;4.870;2024-02-14T03:36:21;32.70;;;16.73;;
51495;SDS011;37572;52.094;4.870;2024-02-14T03:38:47;30.65;;;17.15;;
51495;SDS011;37572;52.094;4.870;2024-02-14T03:41:13;36.25;;;16.98;;
51495;SDS011;37572;52.094;4.870;2024-02-14T03:43:38;35.67;;;16.60;;
51495;SDS011;37572;52.094;4.870;2024-02-14T03:46:03;35.47;;;17.95;;
51495;SDS011;37572;52.094;4.870;2024-02-14T03:48:30;31.02;;;17.25;;
51495;SDS011;37572;52.094;4.870;2024-02-14T03:50:55;34.17;;;18.45;;
51495;SDS011;37572;52.094;4.870;2024-02-14T03:53:22;35.95;;;16.65;;
51495;SDS011;37572;52.094;4.870;2024-02-14T03:55:47;40.00;;;19.50;;
51495;SDS011;37572;52.094;4.870;2024-02-14T03:58:14;36.00;;;18.10;;
51495;SDS011;37572;52.094;4.870;2024-02-14T04:00:41;33.53;;;18.17;;
51495;SDS011;37572;52.094;4.870;2024-02-14T04:03:11;33.63;;;19.42;;
51495;SDS011;37572;52.094;4.870;2024-02-14T04:05:37;37.53;;;18.17;;
51495;SDS011;37572;52.094;4.870;2024-02-14T04:08:02;37.75;;;17.73;;
51495;SDS011;37572;52.094;4.870;2024-02-14T04:10:28;35.60;;;17.73;;
51495;SDS011;37572;52.094;4.870;2024-02-14T04:12:53;31.52;;;17.42;;
51495;SDS011;37572;52.094;4.870;2024-02-14T04:15:19;32.63;;;18.17;;
51495;SDS011;37572;52.094;4.870;2024-02-14T04:17:44;35.83;;;18.45;;
51495;SDS011;37572;52.094;4.870;2024-02-14T04:20:09;33.20;;;16.83;;
51495;SDS011;37572;52.094;4.870;2024-02-14T04:22:35;34.45;;;17.90;;
51495;SDS011;37572;52.094;4.870;2024-02-14T04:25:00;29.95;;;16.92;;
51495;SDS011;37572;52.094;4.870;2024-02-14T04:27:27;34.90;;;17.88;;
51495;SDS011;37572;52.094;4.870;2024-02-14T04:29:52;32.47;;;16.10;;
51495;SDS011;37572;52.094;4.870;2024-02-14T04:32:18;32.10;;;16.50;;
51495;SDS011;37572;52.094;4.870;2024-02-14T04:34:44;32.80;;;16.45;;
51495;SDS011;37572;52.094;4.870;2024-02-14T04:37:10;29.58;;;15.27;;
51495;SDS011;37572;52.094;4.870;2024-02-14T04:39:38;34.85;;;16.08;;
51495;SDS011;37572;52.094;4.870;2024-02-14T04:42:04;32.80;;;15.50;;
51495;SDS011;37572;52.094;4.870;2024-02-14T04:44:29;30.80;;;16.05;;
51495;SDS011;37572;52.094;4.870;2024-02-14T04:46:55;33.03;;;16.60;;
51495;SDS011;37572;52.094;4.870;2024-02-14T04:49:21;30.70;;;16.73;;
51495;SDS011;37572;52.094;4.870;2024-02-14T04:51:46;30.73;;;16.57;;
51495;SDS011;37572;52.094;4.870;2024-02-14T04:54:11;32.08;;;16.75;;
51495;SDS011;37572;52.094;4.870;2024-02-14T04:56:38;29.52;;;17.05;;
51495;SDS011;37572;52.094;4.870;2024-02-14T04:59:03;28.83;;;14.70;;
51495;SDS011;37572;52.094;4.870;2024-02-14T05:01:30;32.10;;;16.90;;
51495;SDS011;37572;52.094;4.870;2024-02-14T05:03:55;32.30;;;16.77;;
51495;SDS011;37572;52.094;4.870;2024-02-14T05:06:20;32.50;;;16.57;;
51495;SDS011;37572;52.094;4.870;2024-02-14T05:08:46;35.13;;;16.90;;
51495;SDS011;37572;52.094;4.870;2024-02-14T05:11:11;30.53;;;16.57;;
51495;SDS011;37572;52.094;4.870;2024-02-14T05:13:36;36.17;;;16.95;;
51495;SDS011;37572;52.094;4.870;2024-02-14T05:16:03;33.15;;;16.58;;
51495;SDS011;37572;52.094;4.870;2024-02-14T05:18:29;30.63;;;15.70;;
51495;SDS011;37572;52.094;4.870;2024-02-14T05:20:54;35.15;;;15.68;;
51495;SDS011;37572;52.094;4.870;2024-02-14T05:23:20;32.93;;;15.57;;
51495;SDS011;37572;52.094;4.870;2024-02-14T05:25:45;31.45;;;15.70;;
51495;SDS011;37572;52.094;4.870;2024-02-14T05:28:10;27.13;;;15.60;;
51495;SDS011;37572;52.094;4.870;2024-02-14T05:30:40;29.88;;;15.13;;
51495;SDS011;37572;52.094;4.870;2024-02-14T05:33:05;29.95;;;15.20;;
51495;SDS011;37572;52.094;4.870;2024-02-14T05:35:31;33.47;;;15.20;;
51495;SDS011;37572;52.094;4.870;2024-02-14T05:37:56;30.13;;;15.67;;
51495;SDS011;37572;52.094;4.870;2024-02-14T05:40:21;28.77;;;15.30;;
51495;SDS011;37572;52.094;4.870;2024-02-14T05:42:47;29.03;;;15.47;;
51495;SDS011;37572;52.094;4.870;2024-02-14T05:45:12;31.90;;;15.52;;
51495;SDS011;37572;52.094;4.870;2024-02-14T05:47:38;31.42;;;15.68;;
51495;SDS011;37572;52.094;4.870;2024-02-14T05:50:04;33.58;;;16.08;;
51495;SDS011;37572;52.094;4.870;2024-02-14T05:52:30;32.28;;;16.42;;
51495;SDS011;37572;52.094;4.870;2024-02-14T05:54:55;31.52;;;17.02;;
51495;SDS011;37572;52.094;4.870;2024-02-14T05:57:21;33.40;;;17.03;;
51495;SDS011;37572;52.094;4.870;2024-02-14T05:59:46;30.73;;;16.47;;
51495;SDS011;37572;52.094;4.870;2024-02-14T06:02:11;31.37;;;16.57;;
51495;SDS011;37572;52.094;4.870;2024-02-14T06:04:37;32.50;;;16.23;;
51495;SDS011;37572;52.094;4.870;2024-02-14T06:07:02;30.73;;;16.98;;
51495;SDS011;37572;52.094;4.870;2024-02-14T06:09:30;29.08;;;15.13;;
51495;SDS011;37572;52.094;4.870;2024-02-14T06:11:55;32.25;;;15.02;;
51495;SDS011;37572;52.094;4.870;2024-02-14T06:14:21;31.07;;;15.50;;
51495;SDS011;37572;52.094;4.870;2024-02-14T06:16:46;31.07;;;14.40;;
51495;SDS011;37572;52.094;4.870;2024-02-14T06:19:11;31.63;;;15.20;;
51495;SDS011;37572;52.094;4.870;2024-02-14T06:21:37;29.15;;;14.25;;
51495;SDS011;37572;52.094;4.870;2024-02-14T06:24:03;30.15;;;15.48;;
51495;SDS011;37572;52.094;4.870;2024-02-14T06:26:29;28.92;;;14.63;;
51495;SDS011;37572;52.094;4.870;2024-02-14T06:28:55;27.65;;;14.48;;
51495;SDS011;37572;52.094;4.870;2024-02-14T06:31:21;27.77;;;14.07;;
51495;SDS011;37572;52.094;4.870;2024-02-14T06:33:47;31.73;;;16.33;;
51495;SDS011;37572;52.094;4.870;2024-02-14T06:36:13;30.08;;;15.95;;
51495;SDS011;37572;52.094;4.870;2024-02-14T06:38:38;35.97;;;17.77;;
51495;SDS011;37572;52.094;4.870;2024-02-14T06:41:05;36.50;;;16.90;;
51495;SDS011;37572;52.094;4.870;2024-02-14T06:43:30;32.67;;;17.38;;
51495;SDS011;37572;52.094;4.870;2024-02-14T06:45:56;34.67;;;17.27;;
51495;SDS011;37572;52.094;4.870;2024-02-14T06:48:22;32.55;;;16.70;;
51495;SDS011;37572;52.094;4.870;2024-02-14T06:50:49;34.83;;;17.30;;
51495;SDS011;37572;52.094;4.870;2024-02-14T06:53:14;38.13;;;17.40;;
51495;SDS011;37572;52.094;4.870;2024-02-14T06:55:40;40.17;;;18.17;;
51495;SDS011;37572;52.094;4.870;2024-02-14T06:58:05;41.67;;;17.37;;
51495;SDS011;37572;52.094;4.870;2024-02-14T07:00:30;37.23;;;16.87;;
51495;SDS011;37572;52.094;4.870;2024-02-14T07:02:55;38.53;;;17.08;;
51495;SDS011;37572;52.094;4.870;2024-02-14T07:05:21;36.30;;;16.90;;
51495;SDS011;37572;52.094;4.870;2024-02-14T07:07:46;38.17;;;17.95;;
51495;SDS011;37572;52.094;4.870;2024-02-14T07:10:12;35.22;;;16.67;;
51495;SDS011;37572;52.094;4.870;2024-02-14T07:12:37;31.98;;;16.13;;
51495;SDS011;37572;52.094;4.870;2024-02-14T07:15:03;33.20;;;16.77;;
51495;SDS011;37572;52.094;4.870;2024-02-14T07:17:30;34.05;;;16.80;;
51495;SDS011;37572;52.094;4.870;2024-02-14T07:19:55;38.25;;;17.90;;
51495;SDS011;37572;52.094;4.870;2024-02-14T07:22:21;33.22;;;16.17;;
51495;SDS011;37572;52.094;4.870;2024-02-14T07:24:46;37.42;;;16.30;;
51495;SDS011;37572;52.094;4.870;2024-02-14T07:27:12;33.73;;;16.73;;
51495;SDS011;37572;52.094;4.870;2024-02-14T07:29:39;34.17;;;16.05;;
51495;SDS011;37572;52.094;4.870;2024-02-14T07:32:04;32.72;;;15.95;;
51495;SDS011;37572;52.094;4.870;2024-02-14T07:34:31;33.08;;;15.55;;
51495;SDS011;37572;52.094;4.870;2024-02-14T07:36:57;30.33;;;14.93;;
51495;SDS011;37572;52.094;4.870;2024-02-14T07:39:22;28.43;;;14.77;;
51495;SDS011;37572;52.094;4.870;2024-02-14T07:41:47;29.60;;;14.63;;
51495;SDS011;37572;52.094;4.870;2024-02-14T07:44:12;30.55;;;15.10;;
51495;SDS011;37572;52.094;4.870;2024-02-14T07:46:38;26.27;;;14.23;;
51495;SDS011;37572;52.094;4.870;2024-02-14T07:49:03;25.05;;;13.55;;
51495;SDS011;37572;52.094;4.870;2024-02-14T07:51:30;26.02;;;13.43;;
51495;SDS011;37572;52.094;4.870;2024-02-14T07:54:01;25.55;;;12.60;;
51495;SDS011;37572;52.094;4.870;2024-02-14T07:56:27;23.50;;;13.43;;
51495;SDS011;37572;52.094;4.870;2024-02-14T07:58:52;24.33;;;13.43;;
51495;SDS011;37572;52.094;4.870;2024-02-14T08:01:18;26.33;;;13.32;;
51495;SDS011;37572;52.094;4.870;2024-02-14T08:03:44;23.25;;;12.57;;
51495;SDS011;37572;52.094;4.870;2024-02-14T08:06:11;24.88;;;12.90;;
51495;SDS011;37572;52.094;4.870;2024-02-14T08:08:36;23.40;;;13.93;;
51495;SDS011;37572;52.094;4.870;2024-02-14T08:11:02;23.10;;;13.30;;
51495;SDS011;37572;52.094;4.870;2024-02-14T08:13:27;23.02;;;12.48;;
51495;SDS011;37572;52.094;4.870;2024-02-14T08:15:53;20.92;;;12.05;;
51495;SDS011;37572;52.094;4.870;2024-02-14T08:18:18;24.27;;;13.70;;
51495;SDS011;37572;52.094;4.870;2024-02-14T08:20:44;19.58;;;12.43;;
51495;SDS011;37572;52.094;4.870;2024-02-14T08:23:09;21.17;;;12.68;;
51495;SDS011;37572;52.094;4.870;2024-02-14T08:25:35;19.02;;;11.63;;
51495;SDS011;37572;52.094;4.870;2024-02-14T08:28:00;18.83;;;11.30;;
51495;SDS011;37572;52.094;4.870;2024-02-14T08:30:25;22.50;;;12.20;;
51495;SDS011;37572;52.094;4.870;2024-02-14T08:32:52;21.65;;;12.48;;
51495;SDS011;37572;52.094;4.870;2024-02-14T08:35:17;21.58;;;11.07;;
51495;SDS011;37572;52.094;4.870;2024-02-14T08:37:43;20.85;;;11.20;;
51495;SDS011;37572;52.094;4.870;2024-02-14T08:40:08;24.57;;;12.90;;
51495;SDS011;37572;52.094;4.870;2024-02-14T08:42:34;19.10;;;11.32;;
51495;SDS011;37572;52.094;4.870;2024-02-14T08:45:00;18.90;;;10.88;;
51495;SDS011;37572;52.094;4.870;2024-02-14T08:47:26;16.75;;;9.77;;
51495;SDS011;37572;52.094;4.870;2024-02-14T08:49:51;14.88;;;9.30;;
51495;SDS011;37572;52.094;4.870;2024-02-14T08:52:17;14.85;;;9.05;;
51495;SDS011;37572;52.094;4.870;2024-02-14T08:54:44;15.93;;;9.20;;
51495;SDS011;37572;52.094;4.870;2024-02-14T08:57:10;16.08;;;8.90;;
51495;SDS011;37572;52.094;4.870;2024-02-14T08:59:35;15.13;;;8.77;;
51495;SDS011;37572;52.094;4.870;2024-02-14T09:02:00;13.33;;;9.40;;
51495;SDS011;37572;52.094;4.870;2024-02-14T09:04:26;12.93;;;8.48;;
51495;SDS011;37572;52.094;4.870;2024-02-14T09:06:52;14.35;;;8.95;;
51495;SDS011;37572;52.094;4.870;2024-02-14T09:09:18;17.17;;;10.57;;
51495;SDS011;37572;52.094;4.870;2024-02-14T09:11:44;15.63;;;9.80;;
51495;SDS011;37572;52.094;4.870;2024-02-14T09:14:11;16.15;;;9.10;;
51495;SDS011;37572;52.094;4.870;2024-02-14T09:16:36;18.02;;;10.75;;
51495;SDS011;37572;52.094;4.870;2024-02-14T09:19:02;19.23;;;10.55;;
51495;SDS011;37572;52.094;4.870;2024-02-14T09:21:30;18.75;;;10.55;;
51495;SDS011;37572;52.094;4.870;2024-02-14T09:23:56;19.02;;;10.70;;
51495;SDS011;37572;52.094;4.870;2024-02-14T09:26:21;20.42;;;11.93;;
51495;SDS011;37572;52.094;4.870;2024-02-14T09:28:46;20.90;;;11.60;;
51495;SDS011;37572;52.094;4.870;2024-02-14T09:31:16;19.33;;;10.95;;
51495;SDS011;37572;52.094;4.870;2024-02-14T09:33:42;19.42;;;10.45;;
51495;SDS011;37572;52.094;4.870;2024-02-14T09:36:07;17.17;;;9.67;;
51495;SDS011;37572;52.094;4.870;2024-02-14T09:38:33;20.42;;;11.57;;
51495;SDS011;37572;52.094;4.870;2024-02-14T09:41:03;21.35;;;10.43;;
51495;SDS011;37572;52.094;4.870;2024-02-14T09:43:39;18.70;;;10.63;;
51495;SDS011;37572;52.094;4.870;2024-02-14T09:46:09;17.75;;;11.27;;
51495;SDS011;37572;52.094;4.870;2024-02-14T09:48:37;19.05;;;10.55;;
51495;SDS011;37572;52.094;4.870;2024-02-14T09:51:04;14.35;;;8.65;;
51495;SDS011;37572;52.094;4.870;2024-02-14T09:53:32;15.98;;;8.57;;
51495;SDS011;37572;52.094;4.870;2024-02-14T09:55:57;17.48;;;9.65;;
51495;SDS011;37572;52.094;4.870;2024-02-14T09:58:24;14.70;;;8.13;;
51495;SDS011;37572;52.094;4.870;2024-02-14T10:00:59;14.23;;;8.45;;
51495;SDS011;37572;52.094;4.870;2024-02-14T10:03:25;13.73;;;8.63;;
51495;SDS011;37572;52.094;4.870;2024-02-14T10:05:51;14.80;;;8.52;;
51495;SDS011;37572;52.094;4.870;2024-02-14T10:08:17;16.13;;;9.23;;
51495;SDS011;37572;52.094;4.870;2024-02-14T10:10:43;13.82;;;8.73;;
51495;SDS011;37572;52.094;4.870;2024-02-14T10:13:09;13.27;;;7.57;;
51495;SDS011;37572;52.094;4.870;2024-02-14T10:15:34;14.52;;;8.13;;
51495;SDS011;37572;52.094;4.870;2024-02-14T10:18:00;15.18;;;8.70;;
51495;SDS011;37572;52.094;4.870;2024-02-14T10:20:26;13.35;;;8.68;;
51495;SDS011;37572;52.094;4.870;2024-02-14T10:23:01;12.55;;;7.80;;
51495;SDS011;37572;52.094;4.870;2024-02-14T10:25:28;13.05;;;7.47;;
51495;SDS011;37572;52.094;4.870;2024-02-14T10:27:54;12.32;;;8.15;;
51495;SDS011;37572;52.094;4.870;2024-02-14T10:30:19;15.15;;;7.78;;
51495;SDS011;37572;52.094;4.870;2024-02-14T10:32:46;12.07;;;7.00;;
51495;SDS011;37572;52.094;4.870;2024-02-14T10:35:15;13.50;;;7.97;;
51495;SDS011;37572;52.094;4.870;2024-02-14T10:37:41;12.05;;;7.18;;
51495;SDS011;37572;52.094;4.870;2024-02-14T10:40:07;11.93;;;7.60;;
51495;SDS011;37572;52.094;4.870;2024-02-14T10:42:34;12.50;;;7.68;;
51495;SDS011;37572;52.094;4.870;2024-02-14T10:45:00;13.80;;;7.78;;
51495;SDS011;37572;52.094;4.870;2024-02-14T10:47:32;12.10;;;7.40;;
51495;SDS011;37572;52.094;4.870;2024-02-14T10:50:03;10.18;;;6.97;;
51495;SDS011;37572;52.094;4.870;2024-02-14T10:52:31;11.10;;;6.53;;
51495;SDS011;37572;52.094;4.870;2024-02-14T10:55:03;11.85;;;7.63;;
51495;SDS011;37572;52.094;4.870;2024-02-14T10:57:30;11.52;;;7.10;;
51495;SDS011;37572;52.094;4.870;2024-02-14T10:59:57;14.98;;;8.68;;
51495;SDS011;37572;52.094;4.870;2024-02-14T11:02:26;14.82;;;8.98;;
51495;SDS011;37572;52.094;4.870;2024-02-14T11:04:55;16.48;;;10.48;;
51495;SDS011;37572;52.094;4.870;2024-02-14T11:07:21;15.00;;;10.05;;
51495;SDS011;37572;52.094;4.870;2024-02-14T11:10:12;15.38;;;10.18;;
51495;SDS011;37572;52.094;4.870;2024-02-14T11:12:38;15.00;;;9.70;;
51495;SDS011;37572;52.094;4.870;2024-02-14T11:15:10;14.55;;;10.15;;
51495;SDS011;37572;52.094;4.870;2024-02-14T11:17:42;15.50;;;10.43;;
51495;SDS011;37572;52.094;4.870;2024-02-14T11:20:12;16.08;;;10.05;;
51495;SDS011;37572;52.094;4.870;2024-02-14T11:22:49;16.75;;;9.27;;
51495;SDS011;37572;52.094;4.870;2024-02-14T11:25:36;16.63;;;10.98;;
51495;SDS011;37572;52.094;4.870;2024-02-14T11:28:14;15.10;;;9.45;;
51495;SDS011;37572;52.094;4.870;2024-02-14T11:30:42;19.67;;;11.43;;
51495;SDS011;37572;52.094;4.870;2024-02-14T11:35:47;16.25;;;10.80;;
51495;SDS011;37572;52.094;4.870;2024-02-14T11:38:16;18.65;;;11.05;;
51495;SDS011;37572;52.094;4.870;2024-02-14T11:40:41;19.95;;;11.10;;
51495;SDS011;37572;52.094;4.870;2024-02-14T11:43:10;17.58;;;10.45;;
51495;SDS011;37572;52.094;4.870;2024-02-14T11:45:40;18.50;;;11.65;;
51495;SDS011;37572;52.094;4.870;2024-02-14T11:48:08;15.80;;;10.52;;
51495;SDS011;37572;52.094;4.870;2024-02-14T11:50:34;18.77;;;10.32;;
51495;SDS011;37572;52.094;4.870;2024-02-14T11:53:00;17.05;;;10.48;;
51495;SDS011;37572;52.094;4.870;2024-02-14T11:55:28;15.48;;;9.75;;
51495;SDS011;37572;52.094;4.870;2024-02-14T11:57:55;16.42;;;10.63;;
51495;SDS011;37572;52.094;4.870;2024-02-14T12:00:21;16.70;;;10.63;;
51495;SDS011;37572;52.094;4.870;2024-02-14T12:02:47;16.38;;;10.65;;
51495;SDS011;37572;52.094;4.870;2024-02-14T12:05:14;17.48;;;10.55;;
51495;SDS011;37572;52.094;4.870;2024-02-14T12:07:40;16.63;;;10.40;;
51495;SDS011;37572;52.094;4.870;2024-02-14T12:10:06;18.02;;;10.68;;
51495;SDS011;37572;52.094;4.870;2024-02-14T12:12:32;14.02;;;9.88;;
51495;SDS011;37572;52.094;4.870;2024-02-14T12:14:57;13.50;;;8.90;;
51495;SDS011;37572;52.094;4.870;2024-02-14T12:17:23;13.95;;;9.13;;
51495;SDS011;37572;52.094;4.870;2024-02-14T12:19:49;17.27;;;9.73;;
51495;SDS011;37572;52.094;4.870;2024-02-14T12:22:15;16.02;;;9.98;;
51495;SDS011;37572;52.094;4.870;2024-02-14T12:24:45;15.23;;;10.32;;
51495;SDS011;37572;52.094;4.870;2024-02-14T12:27:16;14.65;;;9.05;;
51495;SDS011;37572;52.094;4.870;2024-02-14T12:29:45;13.32;;;9.05;;
51495;SDS011;37572;52.094;4.870;2024-02-14T12:32:10;13.32;;;8.32;;
51495;SDS011;37572;52.094;4.870;2024-02-14T12:34:37;12.27;;;8.20;;
51495;SDS011;37572;52.094;4.870;2024-02-14T12:37:02;11.65;;;7.88;;
51495;SDS011;37572;52.094;4.870;2024-02-14T12:39:28;13.43;;;8.15;;
51495;SDS011;37572;52.094;4.870;2024-02-14T12:41:54;13.45;;;8.75;;
51495;SDS011;37572;52.094;4.870;2024-02-14T12:44:19;12.38;;;9.50;;
51495;SDS011;37572;52.094;4.870;2024-02-14T12:46:45;13.52;;;8.95;;
51495;SDS011;37572;52.094;4.870;2024-02-14T12:49:10;14.95;;;10.15;;
51495;SDS011;37572;52.094;4.870;2024-02-14T12:51:36;12.52;;;8.95;;
51495;SDS011;37572;52.094;4.870;2024-02-14T12:54:03;13.75;;;9.02;;
51495;SDS011;37572;52.094;4.870;2024-02-14T12:56:28;13.25;;;8.82;;
51495;SDS011;37572;52.094;4.870;2024-02-14T12:58:54;15.45;;;8.98;;
51495;SDS011;37572;52.094;4.870;2024-02-14T13:01:20;12.57;;;8.73;;
51495;SDS011;37572;52.094;4.870;2024-02-14T13:03:45;13.52;;;7.82;;
51495;SDS011;37572;52.094;4.870;2024-02-14T13:06:11;11.55;;;8.25;;
51495;SDS011;37572;52.094;4.870;2024-02-14T13:08:36;12.60;;;8.82;;
51495;SDS011;37572;52.094;4.870;2024-02-14T13:11:04;12.63;;;7.85;;
51495;SDS011;37572;52.094;4.870;2024-02-14T13:13:30;11.85;;;8.15;;
51495;SDS011;37572;52.094;4.870;2024-02-14T13:15:55;11.30;;;7.70;;
51495;SDS011;37572;52.094;4.870;2024-02-14T13:18:20;11.95;;;7.32;;
51495;SDS011;37572;52.094;4.870;2024-02-14T13:20:46;12.70;;;8.18;;
51495;SDS011;37572;52.094;4.870;2024-02-14T13:23:11;10.63;;;7.22;;
51495;SDS011;37572;52.094;4.870;2024-02-14T13:25:39;11.75;;;8.05;;
51495;SDS011;37572;52.094;4.870;2024-02-14T13:28:04;11.57;;;6.85;;
51495;SDS011;37572;52.094;4.870;2024-02-14T13:30:30;12.20;;;7.18;;
51495;SDS011;37572;52.094;4.870;2024-02-14T13:32:56;10.27;;;6.90;;
51495;SDS011;37572;52.094;4.870;2024-02-14T13:35:21;10.48;;;6.78;;
51495;SDS011;37572;52.094;4.870;2024-02-14T13:37:47;11.35;;;7.55;;
51495;SDS011;37572;52.094;4.870;2024-02-14T13:40:12;12.68;;;7.43;;
51495;SDS011;37572;52.094;4.870;2024-02-14T13:42:38;11.98;;;7.15;;
51495;SDS011;37572;52.094;4.870;2024-02-14T13:45:06;10.00;;;6.65;;
51495;SDS011;37572;52.094;4.870;2024-02-14T13:47:37;11.00;;;7.25;;
51495;SDS011;37572;52.094;4.870;2024-02-14T13:50:07;11.30;;;6.43;;
51495;SDS011;37572;52.094;4.870;2024-02-14T13:52:33;11.13;;;6.25;;
51495;SDS011;37572;52.094;4.870;2024-02-14T13:54:59;12.40;;;7.07;;
51495;SDS011;37572;52.094;4.870;2024-02-14T13:57:27;11.05;;;6.80;;
51495;SDS011;37572;52.094;4.870;2024-02-14T13:59:52;10.07;;;7.17;;
51495;SDS011;37572;52.094;4.870;2024-02-14T14:02:18;11.02;;;6.97;;
51495;SDS011;37572;52.094;4.870;2024-02-14T14:04:44;11.00;;;6.17;;
51495;SDS011;37572;52.094;4.870;2024-02-14T14:07:09;12.80;;;6.70;;
51495;SDS011;37572;52.094;4.870;2024-02-14T14:09:34;10.60;;;6.23;;
51495;SDS011;37572;52.094;4.870;2024-02-14T14:12:00;13.65;;;6.93;;
51495;SDS011;37572;52.094;4.870;2024-02-14T14:14:26;12.15;;;6.80;;
51495;SDS011;37572;52.094;4.870;2024-02-14T14:16:52;10.70;;;5.95;;
51495;SDS011;37572;52.094;4.870;2024-02-14T14:19:17;10.95;;;5.68;;
51495;SDS011;37572;52.094;4.870;2024-02-14T14:21:43;9.77;;;5.70;;
51495;SDS011;37572;52.094;4.870;2024-02-14T14:24:08;8.83;;;5.50;;